createdAt,value
2022-12-08T00:00:18.274Z,28.50
2022-12-08T00:03:04.933Z,27.37
2022-12-08T00:05:51.622Z,25.10
2022-12-08T00:08:38.168Z,25.37
2022-12-08T00:11:24.673Z,24.37
2022-12-08T00:14:11.365Z,24.40
2022-12-08T00:16:57.947Z,25.70
2022-12-08T00:19:44.532Z,24.47
2022-12-08T00:22:31.034Z,25.83
2022-12-08T00:25:17.566Z,28.00
2022-12-08T00:28:04.145Z,24.47
2022-12-08T00:30:50.684Z,28.03
2022-12-08T00:33:37.216Z,28.00
2022-12-08T00:36:23.725Z,28.03
2022-12-08T00:39:10.241Z,28.37
2022-12-08T00:41:56.985Z,30.70
2022-12-08T00:44:43.493Z,26.00
2022-12-08T00:47:30.036Z,29.30
2022-12-08T00:50:16.499Z,27.57
2022-12-08T00:53:03.054Z,26.60
2022-12-08T00:55:49.561Z,29.80
2022-12-08T00:58:36.096Z,27.67
2022-12-08T01:01:22.731Z,27.53
2022-12-08T01:04:09.367Z,28.50
2022-12-08T01:06:55.870Z,30.67
2022-12-08T01:09:42.425Z,30.47
2022-12-08T01:12:28.926Z,26.13
2022-12-08T01:15:15.440Z,31.20
2022-12-08T01:18:01.958Z,32.07
2022-12-08T01:20:48.504Z,30.30
2022-12-08T01:23:35.023Z,27.00
2022-12-08T01:26:21.568Z,26.67
2022-12-08T01:29:08.071Z,30.40
2022-12-08T01:31:54.571Z,27.23
2022-12-08T01:34:41.133Z,27.73
2022-12-08T01:37:27.615Z,31.63
2022-12-08T01:40:14.143Z,28.47
2022-12-08T01:43:00.639Z,32.00
2022-12-08T01:45:47.196Z,29.63
2022-12-08T01:48:33.750Z,26.67
2022-12-08T01:51:20.257Z,27.57
2022-12-08T01:54:06.815Z,28.67
2022-12-08T01:56:53.339Z,27.43
2022-12-08T01:59:39.876Z,28.43
2022-12-08T02:02:26.445Z,30.67
2022-12-08T02:05:12.994Z,29.00
2022-12-08T02:07:59.588Z,26.87
2022-12-08T02:10:46.141Z,26.93
2022-12-08T02:13:32.662Z,29.87
2022-12-08T02:16:19.191Z,29.33
2022-12-08T02:19:29.777Z,27.03
2022-12-08T02:22:12.221Z,27.93
2022-12-08T02:24:58.743Z,34.40
2022-12-08T02:27:45.286Z,27.07
2022-12-08T02:30:31.804Z,30.63
2022-12-08T02:33:18.387Z,26.83
2022-12-08T02:36:04.852Z,27.43
2022-12-08T02:38:51.368Z,27.63
2022-12-08T02:41:37.879Z,27.20
2022-12-08T02:44:24.389Z,27.97
2022-12-08T02:47:10.931Z,29.60
2022-12-08T02:49:57.443Z,26.40
2022-12-08T02:52:44.000Z,27.60
2022-12-08T02:55:30.507Z,30.23
2022-12-08T02:58:16.991Z,36.50
2022-12-08T03:01:03.559Z,28.60
2022-12-08T03:03:50.185Z,30.70
2022-12-08T03:06:36.701Z,29.17
2022-12-08T03:09:23.239Z,28.20
2022-12-08T03:12:09.753Z,27.13
2022-12-08T03:14:56.243Z,37.57
2022-12-08T03:17:42.748Z,29.93
2022-12-08T03:20:29.262Z,32.20
2022-12-08T03:23:15.809Z,28.13
2022-12-08T03:26:02.329Z,30.90
2022-12-08T03:28:48.919Z,31.43
2022-12-08T03:31:35.515Z,34.27
2022-12-08T03:34:22.136Z,32.53
2022-12-08T03:37:08.640Z,28.07
2022-12-08T03:39:55.339Z,42.60
2022-12-08T03:42:41.857Z,35.93
2022-12-08T03:45:28.395Z,37.13
2022-12-08T03:48:14.891Z,41.00
2022-12-08T03:51:01.412Z,38.00
2022-12-08T03:53:47.954Z,59.83
2022-12-08T03:56:34.467Z,51.17
2022-12-08T03:59:21.002Z,42.47
2022-12-08T04:02:07.600Z,29.63
2022-12-08T04:04:54.192Z,48.17
2022-12-08T04:07:40.804Z,50.33
2022-12-08T04:10:27.362Z,43.60
2022-12-08T04:13:13.903Z,44.43
2022-12-08T04:16:01.718Z,37.53
2022-12-08T04:18:48.442Z,39.37
2022-12-08T04:21:34.956Z,36.57
2022-12-08T04:24:21.525Z,41.87
2022-12-08T04:27:08.196Z,40.40
2022-12-08T04:29:54.762Z,37.40
2022-12-08T04:32:45.876Z,41.13
2022-12-08T04:35:33.982Z,51.23
2022-12-08T04:38:20.491Z,49.90
2022-12-08T04:41:07.030Z,76.57
2022-12-08T04:43:53.690Z,59.43
2022-12-08T04:46:43.369Z,54.33
2022-12-08T04:49:30.409Z,44.77
2022-12-08T04:52:16.919Z,44.43
2022-12-08T04:55:03.491Z,52.63
2022-12-08T04:57:50.004Z,44.20
2022-12-08T05:00:36.537Z,83.13
2022-12-08T05:03:28.560Z,67.60
2022-12-08T05:06:15.519Z,72.10
2022-12-08T05:09:02.031Z,40.03
2022-12-08T05:11:49.202Z,41.67
2022-12-08T05:14:35.956Z,45.60
2022-12-08T05:17:22.506Z,44.70
2022-12-08T05:20:09.110Z,43.27
2022-12-08T05:22:55.658Z,68.77
2022-12-08T05:25:42.187Z,120.87
2022-12-08T05:28:44.361Z,61.53
2022-12-08T05:31:31.071Z,66.80
2022-12-08T05:34:17.641Z,54.40
2022-12-08T05:37:04.195Z,49.13
2022-12-08T05:39:50.672Z,74.67
2022-12-08T05:42:37.220Z,57.00
2022-12-08T05:45:23.724Z,43.53
2022-12-08T05:48:10.270Z,40.43
2022-12-08T05:50:56.784Z,43.90
2022-12-08T05:53:43.293Z,42.27
2022-12-08T05:56:29.813Z,36.53
2022-12-08T05:59:16.359Z,37.37
2022-12-08T06:02:03.032Z,49.57
2022-12-08T06:04:49.685Z,48.57
2022-12-08T06:07:36.219Z,43.43
2022-12-08T06:10:22.763Z,62.70
2022-12-08T06:13:09.284Z,36.37
2022-12-08T06:15:55.838Z,38.00
2022-12-08T06:18:42.351Z,78.17
2022-12-08T06:21:28.881Z,39.80
2022-12-08T06:24:15.367Z,37.67
2022-12-08T06:27:01.884Z,43.43
2022-12-08T06:29:48.412Z,50.90
2022-12-08T06:32:35.042Z,50.67
2022-12-08T06:35:21.575Z,48.03
2022-12-08T06:38:08.130Z,45.47
2022-12-08T06:40:54.644Z,39.90
2022-12-08T06:43:41.496Z,32.73
2022-12-08T06:46:28.076Z,27.27
2022-12-08T06:49:14.657Z,28.97
2022-12-08T06:52:01.166Z,25.50
2022-12-08T06:54:47.721Z,28.90
2022-12-08T06:57:34.236Z,18.97
2022-12-08T07:00:20.800Z,22.20
2022-12-08T07:03:07.318Z,20.57
2022-12-08T07:05:53.810Z,21.40
2022-12-08T07:08:40.326Z,24.23
2022-12-08T07:11:26.860Z,21.37
2022-12-08T07:14:13.418Z,21.57
2022-12-08T07:16:59.991Z,24.97
2022-12-08T07:19:46.542Z,26.53
2022-12-08T07:22:33.059Z,26.80
2022-12-08T07:25:19.594Z,25.87
2022-12-08T07:28:06.114Z,39.20
2022-12-08T07:30:52.729Z,36.20
2022-12-08T07:33:39.288Z,39.40
2022-12-08T07:36:25.880Z,33.17
2022-12-08T07:39:12.413Z,34.27
2022-12-08T07:41:58.920Z,32.57
2022-12-08T07:44:45.465Z,25.50
2022-12-08T07:47:33.027Z,28.03
2022-12-08T07:50:19.568Z,39.00
2022-12-08T07:53:06.093Z,42.60
2022-12-08T07:55:52.591Z,31.60
2022-12-08T07:58:39.145Z,30.43
2022-12-08T08:01:25.770Z,47.50
2022-12-08T08:04:12.588Z,32.20
2022-12-08T08:06:59.201Z,43.40
2022-12-08T08:09:45.840Z,30.67
2022-12-08T08:12:33.077Z,36.77
2022-12-08T08:15:19.851Z,34.17
2022-12-08T08:18:06.315Z,36.70
2022-12-08T08:20:52.897Z,42.87
2022-12-08T08:23:39.456Z,38.07
2022-12-08T08:26:27.161Z,36.93
2022-12-08T08:29:13.899Z,38.73
2022-12-08T08:32:00.371Z,36.80
2022-12-08T08:34:46.888Z,45.10
2022-12-08T08:37:33.398Z,41.93
2022-12-08T08:40:19.904Z,26.17
2022-12-08T08:43:06.419Z,21.03
2022-12-08T08:45:52.949Z,32.50
2022-12-08T08:48:39.491Z,22.40
2022-12-08T08:51:26.023Z,27.70
2022-12-08T08:54:12.532Z,24.90
2022-12-08T08:56:59.065Z,22.70
2022-12-08T08:59:45.585Z,21.27
2022-12-08T09:02:32.109Z,23.67
2022-12-08T09:05:18.656Z,26.27
2022-12-08T09:08:05.209Z,24.10
2022-12-08T09:10:51.830Z,25.00
2022-12-08T09:13:38.413Z,25.20
2022-12-08T09:16:25.077Z,26.23
2022-12-08T09:19:11.728Z,25.47
2022-12-08T09:21:58.258Z,28.40
2022-12-08T09:24:44.787Z,29.67
2022-12-08T09:27:31.306Z,25.17
2022-12-08T09:30:17.828Z,24.33
2022-12-08T09:33:04.377Z,24.07
2022-12-08T09:35:50.896Z,25.47
2022-12-08T09:38:37.441Z,25.63
2022-12-08T09:41:23.961Z,28.90
2022-12-08T09:44:10.492Z,27.10
2022-12-08T09:46:57.062Z,24.73
2022-12-08T09:49:43.671Z,25.43
2022-12-08T09:52:30.201Z,27.10
2022-12-08T09:55:16.882Z,26.13
2022-12-08T09:58:03.400Z,23.17
2022-12-08T10:00:49.920Z,27.37
2022-12-08T10:03:36.436Z,24.03
2022-12-08T10:06:22.980Z,28.57
2022-12-08T10:09:12.489Z,26.83
2022-12-08T10:11:59.292Z,28.27
2022-12-08T10:14:45.810Z,31.93
2022-12-08T10:17:32.333Z,38.97
2022-12-08T10:20:18.890Z,34.53
2022-12-08T10:23:05.461Z,37.30
2022-12-08T10:25:52.010Z,27.83
2022-12-08T10:28:44.412Z,36.40
2022-12-08T10:31:31.866Z,32.93
2022-12-08T10:34:18.426Z,31.50
2022-12-08T10:37:04.985Z,31.83
2022-12-08T10:39:51.498Z,30.70
2022-12-08T10:42:38.034Z,34.70
2022-12-08T10:45:24.550Z,33.87
2022-12-08T10:48:12.072Z,33.60
2022-12-08T10:50:58.622Z,32.27
2022-12-08T10:53:45.252Z,31.03
2022-12-08T10:56:31.783Z,30.53
2022-12-08T10:59:18.473Z,32.03
2022-12-08T11:02:05.145Z,31.00
2022-12-08T11:04:51.804Z,28.33
2022-12-08T11:07:38.370Z,27.17
2022-12-08T11:10:24.933Z,30.10
2022-12-08T11:13:11.448Z,28.30
2022-12-08T11:15:58.058Z,21.23
2022-12-08T11:18:44.758Z,22.40
2022-12-08T11:21:31.299Z,20.00
2022-12-08T11:24:17.833Z,21.33
2022-12-08T11:27:04.337Z,20.03
2022-12-08T11:29:50.881Z,22.17
2022-12-08T11:32:37.404Z,22.03
2022-12-08T11:35:24.023Z,23.87
2022-12-08T11:38:21.130Z,22.20
2022-12-08T11:41:14.012Z,19.73
2022-12-08T11:44:02.440Z,18.90
2022-12-08T11:46:48.997Z,21.73
2022-12-08T11:49:35.515Z,20.90
2022-12-08T11:52:22.011Z,18.73
2022-12-08T11:55:08.518Z,18.63
2022-12-08T11:57:55.115Z,19.77
2022-12-08T12:00:41.687Z,20.30
2022-12-08T12:03:28.405Z,20.30
2022-12-08T12:09:21.501Z,17.70
2022-12-08T12:12:08.041Z,21.17
2022-12-08T12:14:54.544Z,22.17
2022-12-08T12:17:41.097Z,20.43
2022-12-08T12:20:27.603Z,21.43
2022-12-08T12:23:14.151Z,23.17
2022-12-08T12:26:00.668Z,21.90
2022-12-08T12:28:47.229Z,17.67
2022-12-08T12:31:33.750Z,21.10
2022-12-08T12:34:20.290Z,19.00
2022-12-08T12:37:06.781Z,18.47
2022-12-08T12:39:53.338Z,20.57
2022-12-08T12:42:39.864Z,18.87
2022-12-08T12:45:26.415Z,19.37
2022-12-08T12:48:12.937Z,20.00
2022-12-08T12:50:59.468Z,18.43
2022-12-08T12:53:45.996Z,18.20
2022-12-08T12:56:32.549Z,18.40
2022-12-08T12:59:19.065Z,19.33
2022-12-08T13:02:05.812Z,21.90
2022-12-08T13:04:52.351Z,17.03
2022-12-08T13:07:38.923Z,19.83
2022-12-08T13:10:25.464Z,18.40
2022-12-08T13:13:12.152Z,17.63
2022-12-08T13:15:58.669Z,17.97
2022-12-08T13:18:45.240Z,19.93
2022-12-08T13:21:31.766Z,21.27
2022-12-08T13:24:18.305Z,20.60
2022-12-08T13:27:04.835Z,26.37
2022-12-08T13:29:51.509Z,21.13
2022-12-08T13:33:09.451Z,22.40
2022-12-08T13:35:44.508Z,23.87
2022-12-08T13:38:30.999Z,23.50
2022-12-08T13:41:17.488Z,21.80
2022-12-08T13:45:03.679Z,26.73
2022-12-08T13:47:33.006Z,30.03
2022-12-08T13:51:15.909Z,24.87
2022-12-08T13:57:02.404Z,29.07
2022-12-08T13:59:36.524Z,27.03
2022-12-08T14:02:23.107Z,27.20
2022-12-08T14:05:17.999Z,25.97
2022-12-08T14:08:05.890Z,25.53
2022-12-08T14:10:52.404Z,29.83
2022-12-08T14:13:39.105Z,24.67
2022-12-08T14:16:25.709Z,26.73
2022-12-08T14:19:12.233Z,31.57
2022-12-08T14:21:58.754Z,28.53
2022-12-08T14:24:45.338Z,25.33
2022-12-08T14:27:31.851Z,31.70
2022-12-08T14:30:18.415Z,27.77
2022-12-08T14:33:04.917Z,28.13
2022-12-08T14:35:51.482Z,25.93
2022-12-08T14:38:38.075Z,26.67
2022-12-08T14:41:24.692Z,27.47
2022-12-08T14:44:11.204Z,28.13
2022-12-08T14:47:01.234Z,27.23
2022-12-08T14:49:51.784Z,29.17
2022-12-08T14:52:38.308Z,28.60
2022-12-08T14:55:24.820Z,27.03
2022-12-08T14:58:16.583Z,24.50
2022-12-08T15:01:03.226Z,23.63
2022-12-08T15:03:51.523Z,21.37
2022-12-08T15:06:38.291Z,23.17
2022-12-08T15:09:25.793Z,21.27
2022-12-08T15:12:12.326Z,21.27
2022-12-08T15:14:58.876Z,22.60
2022-12-08T15:17:45.400Z,24.47
2022-12-08T15:20:35.364Z,24.10
2022-12-08T15:23:22.217Z,25.87
2022-12-08T15:26:08.778Z,122.23
2022-12-08T15:28:55.256Z,158.07
2022-12-08T15:31:41.858Z,141.17
2022-12-08T15:34:28.453Z,145.20
2022-12-08T15:37:15.012Z,154.93
2022-12-08T15:40:01.566Z,110.60
2022-12-08T15:42:48.110Z,82.03
2022-12-08T15:45:34.647Z,51.87
2022-12-08T15:48:21.183Z,48.40
2022-12-08T15:51:07.699Z,50.93
2022-12-08T15:53:54.321Z,61.63
2022-12-08T15:56:50.680Z,42.03
2022-12-08T15:59:47.349Z,30.00
2022-12-08T16:02:56.403Z,55.33
2022-12-08T16:05:46.836Z,29.33
2022-12-08T16:08:56.339Z,38.37
2022-12-08T16:12:10.151Z,29.27
2022-12-08T16:18:03.543Z,31.67
2022-12-08T16:23:56.592Z,30.23
2022-12-08T16:27:51.140Z,25.00
2022-12-08T16:29:49.748Z,23.50
2022-12-08T16:32:36.271Z,122.47
2022-12-08T16:35:22.832Z,265.27
2022-12-08T16:38:09.324Z,213.83
2022-12-08T16:40:55.894Z,212.20
2022-12-08T16:43:42.408Z,87.03
2022-12-08T16:46:29.002Z,95.27
2022-12-08T16:49:15.575Z,94.57
2022-12-08T16:52:02.093Z,109.33
2022-12-08T16:54:48.603Z,60.13
2022-12-08T16:57:35.119Z,126.87
2022-12-08T17:00:21.666Z,140.43
2022-12-08T17:03:08.208Z,116.93
2022-12-08T17:05:54.759Z,139.03
2022-12-08T17:08:41.276Z,97.00
2022-12-08T17:11:28.016Z,50.57
2022-12-08T17:14:14.533Z,41.90
2022-12-08T17:17:01.151Z,37.37
2022-12-08T17:19:47.656Z,32.17
2022-12-08T17:22:34.205Z,34.83
2022-12-08T17:25:20.723Z,24.97
2022-12-08T17:28:07.254Z,31.33
2022-12-08T17:30:53.787Z,33.97
2022-12-08T17:33:40.279Z,30.13
2022-12-08T17:36:26.801Z,33.93
2022-12-08T17:39:18.048Z,38.30
2022-12-08T17:42:05.392Z,30.67
2022-12-08T17:44:51.900Z,69.07
2022-12-08T17:47:38.447Z,70.90
2022-12-08T17:50:24.956Z,37.37
2022-12-08T17:53:11.468Z,51.30
2022-12-08T17:55:57.960Z,44.20
2022-12-08T17:58:45.682Z,29.27
2022-12-08T18:01:34.062Z,29.17
2022-12-08T18:04:20.656Z,34.97
2022-12-08T18:07:07.211Z,46.10
2022-12-08T18:09:53.775Z,55.87
2022-12-08T18:12:40.382Z,49.37
2022-12-08T18:15:26.923Z,27.33
2022-12-08T18:18:13.470Z,23.10
2022-12-08T18:20:59.977Z,24.03
2022-12-08T18:23:46.681Z,28.13
2022-12-08T18:26:33.190Z,31.90
2022-12-08T18:29:19.742Z,27.30
2022-12-08T18:32:06.230Z,27.13
2022-12-08T18:34:52.910Z,20.97
2022-12-08T18:37:39.535Z,27.97
2022-12-08T18:40:26.133Z,28.83
2022-12-08T18:43:12.654Z,24.00
2022-12-08T18:45:59.223Z,26.47
2022-12-08T18:48:45.767Z,23.03
2022-12-08T18:51:32.296Z,23.10
2022-12-08T18:54:21.991Z,24.43
2022-12-08T18:57:11.016Z,32.63
2022-12-08T18:59:57.496Z,32.50
2022-12-08T19:02:44.156Z,26.27
2022-12-08T19:05:30.869Z,24.80
2022-12-08T19:08:17.435Z,26.37
2022-12-08T19:11:04.014Z,22.60
2022-12-08T19:13:50.540Z,28.93
2022-12-08T19:16:37.077Z,27.80
2022-12-08T19:19:23.591Z,31.53
2022-12-08T19:22:10.093Z,28.70
2022-12-08T19:24:56.715Z,36.37
2022-12-08T19:27:43.392Z,38.53
2022-12-08T19:30:29.916Z,36.53
2022-12-08T19:33:16.471Z,33.93
2022-12-08T19:36:02.992Z,28.87
2022-12-08T19:38:49.548Z,31.63
2022-12-08T19:41:36.052Z,24.90
2022-12-08T19:44:22.623Z,23.07
2022-12-08T19:47:09.176Z,25.43
2022-12-08T19:49:55.833Z,25.20
2022-12-08T19:52:42.352Z,27.67
2022-12-08T19:55:28.908Z,27.50
2022-12-08T19:58:15.576Z,26.93
2022-12-08T20:01:02.079Z,26.60
2022-12-08T20:03:48.579Z,32.37
2022-12-08T20:06:35.103Z,42.53
2022-12-08T20:09:21.679Z,32.33
2022-12-08T20:12:08.216Z,29.60
2022-12-08T20:14:54.803Z,27.50
2022-12-08T20:17:41.354Z,29.20
2022-12-08T20:20:27.926Z,29.00
2022-12-08T20:23:14.446Z,26.43
2022-12-08T20:26:01.030Z,25.27
2022-12-08T20:28:47.582Z,26.10
2022-12-08T20:31:34.279Z,26.30
2022-12-08T20:34:20.880Z,25.67
2022-12-08T20:37:07.447Z,21.60
2022-12-08T20:39:54.002Z,23.67
2022-12-08T20:42:40.568Z,26.80
2022-12-08T20:45:27.099Z,25.13
2022-12-08T20:48:13.803Z,23.97
2022-12-08T20:51:00.346Z,21.10
2022-12-08T20:53:47.091Z,24.23
2022-12-08T20:56:33.657Z,22.13
2022-12-08T20:59:20.217Z,20.90
2022-12-08T21:02:06.779Z,24.10
2022-12-08T21:04:53.505Z,21.73
2022-12-08T21:07:40.380Z,24.03
2022-12-08T21:10:27.071Z,23.23
2022-12-08T21:13:13.661Z,21.57
2022-12-08T21:16:00.356Z,22.70
2022-12-08T21:18:47.017Z,27.27
2022-12-08T21:21:33.553Z,21.77
2022-12-08T21:24:20.079Z,21.80
2022-12-08T21:27:06.681Z,26.93
2022-12-08T21:29:53.242Z,27.20
2022-12-08T21:32:40.059Z,21.73
2022-12-08T21:35:26.733Z,22.67
2022-12-08T21:38:13.356Z,25.13
2022-12-08T21:40:59.883Z,22.30
2022-12-08T21:43:46.601Z,24.77
2022-12-08T21:46:33.307Z,23.57
2022-12-08T21:49:20.212Z,23.20
2022-12-08T21:52:06.951Z,22.17
2022-12-08T21:54:53.596Z,18.57
2022-12-08T21:57:40.251Z,21.67
2022-12-08T22:00:27.024Z,19.10
2022-12-08T22:03:14.004Z,21.37
2022-12-08T22:06:00.883Z,19.23
2022-12-08T22:08:47.705Z,19.93
2022-12-08T22:11:34.452Z,24.30
2022-12-08T22:14:21.150Z,22.97
2022-12-08T22:17:07.993Z,27.30
2022-12-08T22:19:54.754Z,27.90
2022-12-08T22:22:41.358Z,23.77
2022-12-08T22:25:28.059Z,19.57
2022-12-08T22:28:14.806Z,16.40
2022-12-08T22:31:01.314Z,14.73
2022-12-08T22:33:47.803Z,15.17
2022-12-08T22:36:34.394Z,20.20
2022-12-08T22:39:21.109Z,20.73
2022-12-08T22:42:07.656Z,18.20
2022-12-08T22:44:54.199Z,18.77
2022-12-08T22:47:40.657Z,18.63
2022-12-08T22:50:27.464Z,17.83
2022-12-08T22:53:14.022Z,17.70
2022-12-08T22:56:00.533Z,21.90
2022-12-08T22:58:47.054Z,26.03
2022-12-08T23:01:33.673Z,23.63
2022-12-08T23:04:20.367Z,20.93
2022-12-08T23:07:06.990Z,16.37
2022-12-08T23:09:53.632Z,18.87
2022-12-08T23:12:40.294Z,16.73
2022-12-08T23:15:26.869Z,18.83
2022-12-08T23:18:13.472Z,15.43
2022-12-08T23:21:00.073Z,18.90
2022-12-08T23:23:46.667Z,14.63
2022-12-08T23:26:33.257Z,17.20
2022-12-08T23:29:19.804Z,12.23
2022-12-08T23:32:06.457Z,13.83
2022-12-08T23:34:53.034Z,14.60
2022-12-08T23:37:39.698Z,13.27
2022-12-08T23:40:26.294Z,18.43
2022-12-08T23:43:12.865Z,16.43
2022-12-08T23:45:59.687Z,15.03
2022-12-08T23:48:46.414Z,15.60
2022-12-08T23:51:32.949Z,19.70
2022-12-08T23:54:19.505Z,14.40
2022-12-08T23:57:06.021Z,13.80
2022-12-08T23:59:52.573Z,16.97
